Time;durP1;ratioP1;P1;durP2;ratioP2;P2;SDS_P1;SDS_P2;PMS_P1;PMS_P2;Temp;Humidity;BMP_temperature;BMP_pressure;BME280_temperature;BME280_humidity;BME280_pressure;Samples;Min_cycle;Max_cycle;Signal;HPM_P1;HPM_P2
2021/01/07 00:00:49;;;;;;;26.00;17.60;;;;;;;2.30;79.78;100471.06;1636950;85;20172;-88
2021/01/07 00:03:44;;;;;;;22.57;16.30;;;;;;;2.31;79.91;100469.26;1651691;84;21204;-91
2021/01/07 00:06:48;;;;;;;23.50;16.40;;;;;;;2.35;79.97;100482.50;1646541;86;21123;-94
2021/01/07 00:10:01;;;;;;;26.83;18.07;;;;;;;2.24;80.32;100474.23;1663635;85;21170;-93
2021/01/07 00:12:49;;;;;;;34.83;20.83;;;;;;;2.20;80.83;100485.13;1679519;80;21152;-93
2021/01/07 00:15:48;;;;;;;34.10;22.50;;;;;;;2.28;80.79;100487.46;1654164;84;21189;-89
2021/01/07 00:18:27;;;;;;;42.47;24.60;;;;;;;2.29;80.72;100486.97;1654050;84;21293;-92
2021/01/07 00:21:07;;;;;;;33.80;19.65;;;;;;;2.22;80.97;100481.39;1674526;84;21179;-91
2021/01/07 00:23:42;;;;;;;33.80;19.40;;;;;;;2.21;80.92;100462.64;1681527;83;21134;-91
2021/01/07 00:26:33;;;;;;;23.20;15.83;;;;;;;2.24;80.66;100473.38;1660458;85;21630;-91
2021/01/07 00:29:06;;;;;;;22.73;14.03;;;;;;;2.32;80.34;100470.45;1648008;84;21220;-91
2021/01/07 00:31:48;;;;;;;30.53;16.20;;;;;;;2.28;80.44;100487.46;1673105;84;21177;-92
2021/01/07 00:34:39;;;;;;;24.23;15.60;;;;;;;2.22;80.55;100477.93;1679059;84;21132;-93
2021/01/07 00:37:34;;;;;;;22.07;11.90;;;;;;;2.26;80.57;100470.98;1661623;85;21676;-92
2021/01/07 00:40:43;;;;;;;23.53;12.93;;;;;;;2.31;80.46;100467.45;1658788;84;21268;-94
2021/01/07 00:43:36;;;;;;;29.63;14.57;;;;;;;2.21;80.75;100453.92;1670186;80;21282;-92
2021/01/07 00:46:20;;;;;;;26.57;13.17;;;;;;;2.17;81.09;100468.28;1679387;80;21122;-88
2021/01/07 00:49:32;;;;;;;42.50;17.93;;;;;;;2.25;81.04;100475.05;1693437;78;21176;-84
2021/01/07 00:52:05;;;;;;;32.97;15.10;;;;;;;2.29;80.97;100485.66;1661674;80;21399;-90
2021/01/07 00:54:39;;;;;;;27.97;13.17;;;;;;;2.21;81.48;100476.28;1647805;82;21165;-93
2021/01/07 00:57:10;;;;;;;31.87;14.77;;;;;;;2.18;81.72;100476.05;1697288;83;21182;-90
2021/01/07 00:59:47;;;;;;;22.40;14.87;;;;;;;2.27;81.58;100471.81;1705088;82;21194;-92
2021/01/07 01:02:58;;;;;;;38.97;17.60;;;;;;;2.30;81.64;100459.72;1691034;84;21164;-91
2021/01/07 01:05:30;;;;;;;44.67;21.37;;;;;;;2.26;81.83;100455.66;1696607;83;21224;-92
2021/01/07 01:08:04;;;;;;;42.93;22.73;;;;;;;2.23;82.00;100459.40;1674806;83;21325;-92
2021/01/07 01:10:56;;;;;;;38.17;18.47;;;;;;;2.30;81.97;100459.72;1693400;83;21137;-92
2021/01/07 01:13:24;;;;;;;28.80;15.37;;;;;;;2.40;81.75;100455.31;1687023;83;21211;-91
2021/01/07 01:15:55;;;;;;;34.07;18.47;;;;;;;2.39;81.80;100460.70;1680602;84;21655;-89
2021/01/07 01:18:22;;;;;;;43.07;20.67;;;;;;;2.32;81.90;100445.95;1676564;83;21358;-90
2021/01/07 01:20:49;;;;;;;33.17;17.53;;;;;;;2.36;81.84;100443.40;1684074;83;21204;-90
2021/01/07 01:23:23;;;;;;;32.47;16.83;;;;;;;2.46;81.50;100438.17;1689507;83;21176;-90
2021/01/07 01:25:52;;;;;;;41.70;22.03;;;;;;;2.40;81.40;100446.11;1666982;84;21171;-92
2021/01/07 01:28:24;;;;;;;38.13;20.27;;;;;;;2.35;81.42;100439.09;1681321;83;21463;-91
2021/01/07 01:30:53;;;;;;;37.53;21.13;;;;;;;2.41;81.42;100421.94;1692123;81;21621;-91
2021/01/07 01:33:30;;;;;;;42.87;20.77;;;;;;;2.48;81.06;100422.59;1649344;85;21181;-91
2021/01/07 01:35:58;;;;;;;34.40;18.83;;;;;;;2.53;80.98;100417.77;1667041;84;21150;-91
2021/01/07 01:38:33;;;;;;;31.57;18.10;;;;;;;2.45;81.01;100412.81;1664651;82;21171;-91
2021/01/07 01:41:04;;;;;;;28.40;17.73;;;;;;;2.45;81.02;100414.98;1657419;82;21210;-93
2021/01/07 01:43:33;;;;;;;30.60;19.47;;;;;;;2.55;80.72;100410.23;1656996;85;21195;-90
2021/01/07 01:46:03;;;;;;;29.53;18.30;;;;;;;2.56;80.61;100403.98;1651631;86;21207;-91
2021/01/07 01:48:32;;;;;;;41.20;21.60;;;;;;;2.49;80.77;100405.02;1658313;85;21336;-89
2021/01/07 01:51:04;;;;;;;29.83;20.53;;;;;;;2.49;80.75;100402.39;1672074;84;21202;-92
2021/01/07 01:54:06;;;;;;;27.50;18.00;;;;;;;2.59;80.47;100398.47;1664463;81;21141;-91
2021/01/07 01:56:47;;;;;;;28.10;19.27;;;;;;;2.62;80.38;100403.44;1691905;82;21155;-94
2021/01/07 01:59:16;;;;;;;28.07;19.37;;;;;;;2.53;80.60;100399.34;1691735;81;21222;-91
2021/01/07 02:01:44;;;;;;;28.63;20.13;;;;;;;2.52;80.69;100387.17;1689529;85;21222;-90
2021/01/07 02:04:12;;;;;;;24.80;19.70;;;;;;;2.64;80.34;100379.16;1686352;83;21147;-91
2021/01/07 02:07:03;;;;;;;;;;;;;;;2.67;80.19;100374.92;1693448;80;21094;-92
2021/01/07 02:09:34;;;;;;;23.13;14.17;;;;;;;2.59;80.25;100358.98;1691692;80;20254;-91
2021/01/07 02:12:03;;;;;;;28.97;17.13;;;;;;;2.49;80.39;100372.13;1670006;83;21214;-90
2021/01/07 02:14:31;;;;;;;23.57;17.17;;;;;;;2.63;79.96;100361.20;1688157;83;21198;-92
2021/01/07 02:17:01;;;;;;;20.07;13.63;;;;;;;2.61;79.75;100353.93;1691348;83;21182;-94
2021/01/07 02:19:58;;;;;;;19.37;15.35;;;;;;;2.45;80.07;100354.47;1670962;83;21324;-90
2021/01/07 02:22:27;;;;;;;20.93;14.97;;;;;;;2.45;80.36;100340.45;1684949;84;21569;-91
2021/01/07 02:24:56;;;;;;;17.67;12.87;;;;;;;2.51;80.28;100346.52;1689361;83;21182;-90
2021/01/07 02:27:45;;;;;;;22.67;15.60;;;;;;;2.52;80.19;100338.95;1671863;84;21222;-91
2021/01/07 02:39:51;;;;;;;21.63;13.13;;;;;;;2.47;80.05;100325.40;1725076;80;21259;-94
2021/01/07 02:47:43;;;;;;;;;;;;;;;;;;;;;
2021/01/07 02:57:02;;;;;;;20.93;13.90;;;;;;;2.26;80.69;100295.22;1674723;82;21174;-93
2021/01/07 03:03:55;;;;;;;26.50;17.23;;;;;;;2.18;81.10;100294.59;1637496;84;21158;-86
2021/01/07 03:06:37;;;;;;;31.20;18.43;;;;;;;2.29;80.99;100293.64;1678212;82;21176;-92
2021/01/07 03:09:47;;;;;;;28.03;16.97;;;;;;;2.30;80.85;100280.86;1664995;84;21172;-93
2021/01/07 03:13:18;;;;;;;23.20;16.77;;;;;;;2.24;81.08;100280.92;1679866;84;21620;-94
2021/01/07 03:15:59;;;;;;;22.73;14.70;;;;;;;2.04;80.77;100232.70;1687239;84;21132;-94
2021/01/07 03:19:28;;;;;;;37.57;21.27;;;;;;;2.41;80.47;100274.16;1656932;85;21179;-91
2021/01/07 03:22:36;;;;;;;28.23;14.73;;;;;;;2.34;80.56;100299.34;1672316;84;21156;-91
2021/01/07 03:25:15;;;;;;;24.33;16.07;;;;;;;2.30;80.75;100281.68;1681820;84;21186;-93
2021/01/07 03:28:02;;;;;;;36.57;20.43;;;;;;;2.40;80.50;100258.02;1676068;84;21227;-92
2021/01/07 03:30:58;;;;;;;59.57;25.23;;;;;;;2.34;80.57;100260.70;1667699;84;21757;-94
2021/01/07 03:33:35;;;;;;;29.20;18.23;;;;;;;2.30;80.73;100252.75;1653741;85;21338;-93
2021/01/07 03:36:27;;;;;;;44.90;22.23;;;;;;;2.36;80.43;100234.77;1682207;84;21069;-93
2021/01/07 03:38:59;;;;;;;27.77;18.33;;;;;;;2.43;80.10;100237.16;1695165;85;21282;-94
2021/01/07 03:41:43;;;;;;;25.27;16.47;;;;;;;2.42;80.15;100246.86;1672446;85;21179;-94
2021/01/07 03:45:11;;;;;;;27.47;16.70;;;;;;;2.32;80.45;100244.72;1692849;83;21235;-92
2021/01/07 03:48:00;;;;;;;31.67;20.03;;;;;;;2.33;80.54;100237.16;1668785;85;21607;-92
2021/01/07 03:50:30;;;;;;;43.00;21.50;;;;;;;2.37;80.50;100240.35;1695048;82;21097;-91
2021/01/07 03:53:04;;;;;;;69.97;32.87;;;;;;;2.33;80.68;100238.48;1697942;82;21231;-90
2021/01/07 03:55:54;;;;;;;61.83;30.77;;;;;;;2.35;80.72;100235.22;1697541;82;21117;-92
2021/01/07 03:58:31;;;;;;;55.43;26.67;;;;;;;2.46;80.49;100229.83;1696245;85;21160;-92
2021/01/07 04:01:11;;;;;;;47.87;23.60;;;;;;;2.62;80.15;100226.66;1621147;85;21329;-91
2021/01/07 04:03:46;;;;;;;30.97;18.97;;;;;;;2.62;80.04;100220.08;1698099;82;21129;-91
2021/01/07 04:07:00;;;;;;;51.03;23.53;;;;;;;2.55;79.79;100207.63;1679685;84;21227;-90
2021/01/07 04:09:28;;;;;;;40.23;23.77;;;;;;;2.53;79.84;100222.23;1642419;86;21919;-91
2021/01/07 04:12:03;;;;;;;66.43;28.80;;;;;;;2.50;79.89;100227.26;1666210;86;21217;-91
2021/01/07 04:14:33;;;;;;;62.10;27.67;;;;;;;2.44;80.21;100220.42;1702201;82;21101;-86
2021/01/07 04:17:16;;;;;;;37.83;19.27;;;;;;;2.37;80.42;100220.13;1671973;83;21294;-83
2021/01/07 04:20:41;;;;;;;66.87;28.97;;;;;;;2.44;80.27;100213.35;1693918;83;21167;-94
2021/01/07 04:23:38;;;;;;;49.07;22.90;;;;;;;2.53;79.88;100213.84;1670402;84;21105;-93
2021/01/07 04:27:09;;;;;;;58.37;28.97;;;;;;;2.48;80.24;100217.86;1683152;84;21147;-92
2021/01/07 04:40:17;;;;;;;45.27;23.20;;;;;;;2.30;80.64;100205.89;1713168;82;21083;-86
2021/01/07 04:47:00;;;;;;;68.23;29.53;;;;;;;2.34;80.60;100209.41;1666001;82;21153;-95
2021/01/07 04:50:07;;;;;;;41.77;22.53;;;;;;;2.24;81.05;100213.85;1670613;83;21164;-94
2021/01/07 04:53:28;;;;;;;57.20;25.27;;;;;;;2.18;81.45;100221.45;1692832;83;21143;-95
2021/01/07 04:56:32;;;;;;;28.57;16.40;;;;;;;2.28;81.20;100217.01;1677577;85;21176;-94
2021/01/07 04:59:52;;;;;;;23.47;16.03;;;;;;;2.40;81.03;100214.60;1667492;84;21140;-94
2021/01/07 05:03:01;;;;;;;30.17;16.43;;;;;;;2.30;81.29;100208.52;1693882;82;21132;-89
2021/01/07 05:06:13;;;;;;;42.75;21.02;;;;;;;2.23;81.71;100198.20;1688605;81;20998;-87
2021/01/07 05:11:48;;;;;;;50.57;23.50;;;;;;;2.37;81.43;100189.87;1673601;78;21242;-91
2021/01/07 05:14:44;;;;;;;39.97;21.53;;;;;;;2.38;81.67;100183.66;1756879;82;21156;-94
2021/01/07 05:17:38;;;;;;;52.17;24.37;;;;;;;2.48;81.54;100184.48;1740456;82;21148;-94
2021/01/07 05:20:24;;;;;;;54.25;24.02;;;;;;;2.65;81.10;100175.53;1700173;81;21052;-94
2021/01/07 05:23:24;;;;;;;55.50;27.53;;;;;;;2.66;80.97;100185.10;1642664;86;21159;-92
2021/01/07 05:26:33;;;;;;;42.27;21.53;;;;;;;2.60;81.32;100161.95;1827463;74;24862;-92
2021/01/07 05:29:24;;;;;;;30.27;17.07;;;;;;;2.48;81.61;100154.22;1741954;79;22311;-94
2021/01/07 05:32:40;;;;;;;24.93;15.87;;;;;;;2.62;81.23;100154.28;1736562;79;21468;-88
2021/01/07 05:35:10;;;;;;;19.70;14.30;;;;;;;2.65;81.23;100158.42;1721549;81;21191;-90
2021/01/07 05:37:39;;;;;;;18.93;13.27;;;;;;;2.59;81.40;100164.27;1601343;87;21345;-89
2021/01/07 05:40:08;;;;;;;17.87;12.80;;;;;;;2.54;81.54;100142.30;1610491;87;21411;-91
2021/01/07 05:42:42;;;;;;;14.93;11.30;;;;;;;2.61;81.28;100140.77;1618381;87;21684;-89
2021/01/07 05:45:12;;;;;;;14.90;11.10;;;;;;;2.67;81.12;100154.67;1623742;87;21224;-90
2021/01/07 05:47:44;;;;;;;27.70;16.73;;;;;;;2.61;81.34;100142.58;1610983;87;21294;-89
2021/01/07 05:50:40;;;;;;;15.20;11.83;;;;;;;2.53;81.81;100132.77;1846142;76;22505;-91
2021/01/07 05:53:12;;;;;;;16.33;11.33;;;;;;;2.58;81.65;100131.86;1780187;80;22204;-91
2021/01/07 05:55:43;;;;;;;17.13;13.10;;;;;;;2.74;81.35;100140.47;1830403;77;21147;-90
2021/01/07 05:58:12;;;;;;;15.00;11.23;;;;;;;2.75;81.12;100134.25;1776926;78;21174;-93
2021/01/07 06:00:41;;;;;;;15.10;10.90;;;;;;;2.63;81.35;100138.00;1817746;77;21099;-90
2021/01/07 06:03:13;;;;;;;17.73;12.30;;;;;;;2.66;81.40;100135.10;1809599;78;21242;-88
2021/01/07 06:05:42;;;;;;;25.57;17.10;;;;;;;2.80;81.23;100146.97;1813772;75;21159;-90
2021/01/07 06:08:13;;;;;;;33.23;18.10;;;;;;;2.76;81.24;100150.37;1735887;80;21193;-92
2021/01/07 06:10:43;;;;;;;58.73;28.50;;;;;;;2.59;81.86;100134.00;1730578;80;21211;-91
2021/01/07 06:13:11;;;;;;;57.37;27.77;;;;;;;2.60;81.90;100137.81;1713617;82;21175;-92
2021/01/07 06:15:40;;;;;;;37.93;21.83;;;;;;;2.65;81.91;100134.74;1684117;83;21268;-89
2021/01/07 06:18:17;;;;;;;47.90;26.73;;;;;;;2.69;81.83;100142.69;1719020;83;21185;-89
2021/01/07 06:21:08;;;;;;;42.97;22.73;;;;;;;2.60;82.12;100141.77;1695711;80;21152;-93
2021/01/07 06:27:55;;;;;;;47.80;24.30;;;;;;;2.73;81.93;100134.39;1691400;79;21251;-91
2021/01/07 06:30:33;;;;;;;56.77;28.43;;;;;;;2.71;82.21;100134.16;1683394;82;21134;-93
2021/01/07 06:33:17;;;;;;;48.45;27.10;;;;;;;2.68;82.37;100141.05;1722091;81;21177;-92
2021/01/07 06:35:50;;;;;;;53.80;27.63;;;;;;;2.79;82.01;100139.56;1694299;82;21203;-92
2021/01/07 06:38:26;;;;;;;52.07;25.17;;;;;;;2.91;81.71;100139.72;1687128;82;21144;-92
2021/01/07 06:40:57;;;;;;;71.57;32.40;;;;;;;2.80;81.78;100163.58;1706166;83;21339;-92
2021/01/07 06:43:26;;;;;;;83.87;36.30;;;;;;;2.64;82.58;100160.73;1683946;83;21424;-92
2021/01/07 06:45:58;;;;;;;84.50;39.40;;;;;;;2.68;82.49;100154.20;1695456;84;21264;-93
2021/01/07 06:48:41;;;;;;;110.50;46.93;;;;;;;2.78;82.28;100141.02;1693570;83;21244;-92
2021/01/07 06:51:14;;;;;;;112.93;45.63;;;;;;;2.76;82.42;100142.97;1706248;83;21243;-87
2021/01/07 06:54:11;;;;;;;;;;;;;;;;;;;;;
2021/01/07 07:07:27;;;;;;;72.20;30.37;;;;;;;2.80;82.51;100120.16;1818766;77;24592;-90
2021/01/07 07:10:36;;;;;;;48.57;26.50;;;;;;;2.79;82.49;100123.77;1753513;80;21264;-90
2021/01/07 07:13:31;;;;;;;76.70;28.80;;;;;;;2.78;82.61;100126.55;1767076;79;21187;-91
2021/01/07 07:16:40;;;;;;;53.23;25.67;;;;;;;2.79;83.05;100124.23;1767479;79;22442;-90
2021/01/07 07:19:25;;;;;;;61.37;30.40;;;;;;;2.87;82.92;100134.90;1781310;80;21117;-92
2021/01/07 07:22:08;;;;;;;63.60;30.70;;;;;;;2.89;82.71;100129.00;1775053;80;21157;-91
2021/01/07 07:25:00;;;;;;;53.17;25.03;;;;;;;2.09;82.49;100008.80;1783284;80;21178;-91
2021/01/07 07:27:55;;;;;;;48.57;25.87;;;;;;;2.88;82.37;100115.02;1762528;78;21306;-89
2021/01/07 07:30:42;;;;;;;62.23;27.97;;;;;;;2.98;81.90;100114.16;1781798;78;21125;-92
2021/01/07 07:34:05;;;;;;;63.10;27.13;;;;;;;2.94;81.91;100107.03;1723296;80;21184;-89
2021/01/07 07:36:48;;;;;;;63.63;29.70;;;;;;;2.84;82.22;100110.98;1703317;78;21119;-90
2021/01/07 07:39:34;;;;;;;45.70;21.57;;;;;;;2.93;81.97;100092.19;1708082;82;21139;-90
2021/01/07 07:42:12;;;;;;;48.40;25.07;;;;;;;2.79;82.38;100101.40;1705226;82;21219;-90
2021/01/07 07:44:56;;;;;;;37.33;19.20;;;;;;;2.78;82.50;100097.09;1706298;82;21115;-91
2021/01/07 07:47:55;;;;;;;30.30;16.07;;;;;;;2.86;82.37;100089.33;1700120;81;21172;-91
2021/01/07 07:50:36;;;;;;;31.73;19.47;;;;;;;2.87;82.26;100066.45;1703104;81;21239;-89
2021/01/07 07:53:15;;;;;;;26.77;16.53;;;;;;;2.86;82.31;100063.00;1692935;82;21147;-91
2021/01/07 07:55:51;;;;;;;27.23;16.77;;;;;;;2.88;82.47;100066.78;1695026;82;21171;-88
2021/01/07 07:58:18;;;;;;;21.37;14.10;;;;;;;2.97;82.23;100060.64;1703220;83;21160;-89
2021/01/07 08:00:51;;;;;;;27.27;16.57;;;;;;;3.01;81.76;100055.42;1720674;81;21286;-90
2021/01/07 08:03:30;;;;;;;20.97;13.50;;;;;;;2.94;81.94;100047.79;1695827;81;21194;-92
2021/01/07 08:06:09;;;;;;;24.67;14.95;;;;;;;2.95;82.11;100044.66;1695726;82;21072;-91
2021/01/07 08:09:12;;;;;;;24.90;16.47;;;;;;;3.07;81.78;100029.84;1765619;79;23123;-92
2021/01/07 08:11:50;;;;;;;24.40;15.47;;;;;;;2.99;81.96;100036.31;1704158;82;21164;-93
2021/01/07 08:14:47;;;;;;;21.07;13.33;;;;;;;2.99;82.09;100027.09;1720917;81;21114;-91
2021/01/07 08:17:21;;;;;;;35.83;18.03;;;;;;;3.16;81.79;100028.11;1698919;81;21180;-90
2021/01/07 08:19:59;;;;;;;27.30;16.43;;;;;;;3.17;81.37;100025.83;1686141;78;21110;-85
2021/01/07 08:22:42;;;;;;;48.77;23.47;;;;;;;3.11;81.70;100029.06;1700469;80;21262;-92
2021/01/07 08:25:31;;;;;;;44.90;20.80;;;;;;;3.00;82.13;100029.27;1717060;78;21116;-91
2021/01/07 08:28:44;;;;;;;27.33;15.47;;;;;;;3.08;81.91;100009.59;1740498;80;21117;-90
2021/01/07 08:31:21;;;;;;;41.67;18.57;;;;;;;3.05;82.07;100028.31;1700121;81;21490;-91
2021/01/07 08:33:54;;;;;;;23.67;14.17;;;;;;;2.91;82.68;100023.87;1716586;77;21162;-91
2021/01/07 08:36:29;;;;;;;20.40;12.57;;;;;;;2.89;82.90;100015.30;1665859;81;21167;-93
2021/01/07 08:39:14;;;;;;;26.80;15.10;;;;;;;3.01;82.68;100000.63;1665527;84;21242;-92
2021/01/07 08:41:53;;;;;;;24.53;13.57;;;;;;;3.06;82.57;99995.75;1678679;81;21213;-93
2021/01/07 08:47:28;;;;;;;48.70;27.25;;;;;;;3.14;82.63;99993.19;1817762;76;28233;-93
2021/01/07 08:50:19;;;;;;;62.17;28.43;;;;;;;3.37;82.00;99989.66;1804560;79;21264;-90
2021/01/07 08:52:56;;;;;;;76.17;32.40;;;;;;;3.52;81.60;99980.70;1761129;79;21820;-90
2021/01/07 08:55:49;;;;;;;62.60;29.07;;;;;;;3.40;81.70;99982.75;1758059;79;21243;-85
2021/01/07 08:58:22;;;;;;;35.30;20.50;;;;;;;3.43;81.59;99983.78;1784065;79;21336;-83
2021/01/07 09:00:53;;;;;;;38.70;17.53;;;;;;;3.41;81.72;99973.88;1772266;79;21319;-87
2021/01/07 09:03:20;;;;;;;48.10;22.13;;;;;;;3.31;82.02;99968.70;1740545;80;21185;-87
2021/01/07 09:06:09;;;;;;;44.70;23.47;;;;;;;3.37;81.99;99957.19;1745884;79;21113;-87
2021/01/07 09:08:42;;;;;;;36.80;21.83;;;;;;;3.48;81.75;99947.27;1739775;80;21196;-87
2021/01/07 09:11:11;;;;;;;47.80;24.37;;;;;;;3.46;81.88;99945.75;1730366;80;21176;-85
2021/01/07 09:13:38;;;;;;;62.93;29.90;;;;;;;3.39;82.02;99944.70;1740952;80;21195;-86
2021/01/07 09:16:16;;;;;;;80.60;34.60;;;;;;;3.42;81.99;99934.69;1752066;80;21768;-86
2021/01/07 09:18:43;;;;;;;67.53;34.03;;;;;;;3.55;81.74;99941.38;1735885;80;21229;-88
2021/01/07 09:21:14;;;;;;;77.80;39.57;;;;;;;3.53;81.75;99929.67;1738385;80;21188;-86
2021/01/07 09:23:47;;;;;;;61.80;31.07;;;;;;;3.46;81.97;99928.12;1749910;80;21179;-91
2021/01/07 09:26:30;;;;;;;60.07;27.43;;;;;;;3.42;82.16;99916.73;1764963;80;21220;-88
2021/01/07 09:29:23;;;;;;;68.80;34.18;;;;;;;3.55;82.01;99913.72;1776321;77;29771;-88
2021/01/07 09:31:54;;;;;;;57.87;29.17;;;;;;;3.71;81.44;99904.59;1766382;79;21176;-87
2021/01/07 09:34:24;;;;;;;74.27;29.57;;;;;;;3.72;81.12;99891.76;1736982;79;21491;-89
2021/01/07 09:37:09;;;;;;;40.10;22.53;;;;;;;3.70;81.41;99887.13;1720639;81;21120;-88
2021/01/07 09:39:40;;;;;;;60.00;27.03;;;;;;;3.60;81.80;99885.92;1683433;82;21744;-88
2021/01/07 09:42:11;;;;;;;69.77;31.67;;;;;;;3.57;81.87;99878.31;1673963;83;21234;-87
2021/01/07 09:44:41;;;;;;;52.93;24.83;;;;;;;3.49;82.40;99876.45;1676755;82;21155;-89
2021/01/07 09:47:09;;;;;;;49.67;25.40;;;;;;;3.51;82.44;99861.80;1686500;81;21226;-89
2021/01/07 09:49:46;;;;;;;48.87;22.60;;;;;;;3.63;82.23;99860.55;1681043;84;21251;-89
2021/01/07 09:54:20;;;;;;;68.07;28.10;;;;;;;3.65;82.23;99847.22;1838256;77;22800;-87
2021/01/07 09:56:50;;;;;;;66.80;28.20;;;;;;;3.48;82.54;99838.39;1818165;77;21796;-87
2021/01/07 09:59:27;;;;;;;41.18;20.55;;;;;;;3.55;82.38;99839.92;1757302;79;21946;-87
2021/01/07 10:02:07;;;;;;;29.40;17.47;;;;;;;3.64;82.31;99817.41;1784557;79;21186;-86
2021/01/07 10:04:35;;;;;;;21.33;14.33;;;;;;;3.67;82.50;99806.57;1773103;79;21290;-89
2021/01/07 10:07:04;;;;;;;18.60;12.57;;;;;;;3.67;82.51;99814.48;1750438;79;21090;-86
2021/01/07 10:09:33;;;;;;;18.97;13.27;;;;;;;3.68;82.50;99824.02;1747307;82;21806;-86
2021/01/07 10:12:01;;;;;;;22.57;15.40;;;;;;;3.79;82.30;99819.48;1725051;81;21368;-87
2021/01/07 10:14:35;;;;;;;26.50;15.47;;;;;;;3.87;81.49;99814.23;1726153;82;21152;-85
2021/01/07 10:17:05;;;;;;;51.20;26.17;;;;;;;3.87;81.50;99801.87;1722155;82;21196;-88
2021/01/07 10:19:37;;;;;;;16.33;11.40;;;;;;;3.82;81.66;99788.33;1694362;84;21158;-88
2021/01/07 10:22:10;;;;;;;17.13;10.83;;;;;;;3.71;81.66;99799.15;1666213;84;21211;-90
2021/01/07 10:24:43;;;;;;;16.17;11.43;;;;;;;3.79;81.53;99783.89;1693609;84;21166;-88
2021/01/07 10:27:11;;;;;;;13.00;9.80;;;;;;;3.84;81.54;99790.81;1668301;85;21321;-91
2021/01/07 10:29:39;;;;;;;11.83;9.93;;;;;;;3.83;81.77;99776.81;1669414;84;21314;-89
2021/01/07 10:32:09;;;;;;;12.57;8.20;;;;;;;3.84;81.88;99765.77;1655659;85;21370;-88
2021/01/07 10:34:54;;;;;;;8.60;6.70;;;;;;;3.91;81.63;99761.52;1668171;85;21243;-91
2021/01/07 10:37:23;;;;;;;10.97;7.27;;;;;;;4.06;81.34;99759.91;1639691;85;21130;-88
2021/01/07 10:40:12;;;;;;;7.63;6.87;;;;;;;4.11;81.34;99751.53;1753668;80;23019;-86
2021/01/07 10:42:48;;;;;;;8.27;6.57;;;;;;;4.04;81.29;99747.88;1684094;82;21798;-86
2021/01/07 10:45:20;;;;;;;9.17;7.47;;;;;;;3.96;81.04;99736.00;1703007;82;21196;-87
2021/01/07 10:47:52;;;;;;;5.43;4.83;;;;;;;4.01;80.99;99741.59;1705157;82;21328;-88
2021/01/07 10:50:31;;;;;;;;;;;;;;;;;;;;;
2021/01/07 10:53:13;;;;;;;8.47;7.53;;;;;;;4.01;80.98;99731.05;1707907;82;21855;-87
2021/01/07 10:56:07;;;;;;;7.03;6.33;;;;;;;3.92;81.30;99730.22;1712064;82;21237;-87
2021/01/07 10:59:19;;;;;;;6.53;5.63;;;;;;;4.11;81.36;99704.06;1830647;75;22557;-89
2021/01/07 11:05:15;;;;;;;14.53;8.03;;;;;;;4.03;81.23;99696.11;1796188;78;21183;-89
2021/01/07 11:08:52;;;;;;;9.00;7.25;;;;;;;4.00;81.50;99697.27;1715560;81;21245;-91
2021/01/07 11:12:05;;;;;;;;;;;;;;;;;;;;;
2021/01/07 11:14:49;;;;;;;6.37;5.37;;;;;;;4.09;81.10;99689.71;1680858;83;21149;-89
2021/01/07 11:17:25;;;;;;;5.70;5.10;;;;;;;4.04;81.45;99676.17;1691809;84;21153;-91
2021/01/07 11:20:05;;;;;;;5.07;4.57;;;;;;;4.12;81.36;99675.36;1660225;84;21196;-89
2021/01/07 11:22:38;;;;;;;7.33;5.03;;;;;;;4.27;81.11;99661.03;1700709;83;21825;-87
2021/01/07 11:25:14;;;;;;;7.03;5.43;;;;;;;4.25;81.11;99655.92;1686636;84;21267;-89
2021/01/07 11:27:47;;;;;;;7.53;5.63;;;;;;;4.21;81.24;99643.23;1681085;84;21172;-89
2021/01/07 11:30:27;;;;;;;;;;;;;;;;;;;;;
2021/01/07 11:33:20;;;;;;;6.17;5.57;;;;;;;4.41;80.93;99632.69;1766640;79;23623;-90
2021/01/07 11:35:54;;;;;;;8.07;5.80;;;;;;;4.37;81.08;99631.38;1717233;83;21123;-89
2021/01/07 11:51:50;;;;;;;9.53;7.27;;;;;;;4.08;82.17;99597.56;1769343;79;22944;-91
2021/01/07 11:54:21;;;;;;;9.40;6.20;;;;;;;4.14;82.08;99596.89;1694448;82;21195;-88
2021/01/07 11:56:53;;;;;;;10.27;7.50;;;;;;;4.25;81.85;99593.11;1746955;81;21168;-91
2021/01/07 11:59:29;;;;;;;8.93;7.47;;;;;;;4.23;81.98;99584.53;1668513;82;21200;-93
2021/01/07 12:02:30;;;;;;;8.40;6.77;;;;;;;4.23;82.14;99577.94;1795401;78;23820;-93
2021/01/07 12:05:03;;;;;;;8.03;6.37;;;;;;;3.57;81.90;99471.16;1779457;79;21163;-93
2021/01/07 12:08:06;;;;;;;10.40;7.57;;;;;;;4.39;81.77;99585.01;1753384;79;21204;-91
2021/01/07 12:10:56;;;;;;;11.70;7.70;;;;;;;4.38;81.82;99569.68;1760832;80;21309;-90
2021/01/07 12:14:15;;;;;;;;;;;;;;;;;;;;;
2021/01/07 12:17:06;;;;;;;9.20;6.90;;;;;;;4.45;81.80;99575.94;1843564;76;26624;-90
2021/01/07 12:19:39;;;;;;;9.07;7.50;;;;;;;4.45;81.70;99573.81;1766533;80;21756;-91
2021/01/07 12:22:15;;;;;;;7.47;6.73;;;;;;;4.41;81.93;99562.76;1715834;80;21158;-89
2021/01/07 12:24:44;;;;;;;8.60;7.17;;;;;;;4.39;82.09;99567.85;1720930;80;21336;-91
2021/01/07 12:27:16;;;;;;;7.63;5.23;;;;;;;4.46;81.94;99560.92;1764563;80;21191;-91
2021/01/07 12:30:06;;;;;;;8.80;6.17;;;;;;;4.56;81.56;99552.34;1751491;81;21229;-90
2021/01/07 12:33:23;;;;;;;;;;;;;;;;;;;;;
2021/01/07 12:36:40;;;;;;;8.30;6.05;;;;;;;4.46;81.83;99551.22;1673694;80;21115;31
2021/01/07 12:50:13;;;;;;;9.30;7.13;;;;;;;4.49;82.22;99521.83;1690779;78;22447;-91
2021/01/07 12:53:42;;;;;;;9.07;7.50;;;;;;;4.46;82.20;99526.14;1644393;83;21757;-94
2021/01/07 12:57:11;;;;;;;10.48;8.13;;;;;;;4.41;82.46;99515.77;1594781;87;21316;-92
2021/01/07 13:11:03;;;;;;;9.53;7.80;;;;;;;4.46;82.56;99490.52;1804137;75;961467;-87
2021/01/07 13:13:48;;;;;;;10.73;8.20;;;;;;;4.38;82.60;99483.92;1812882;79;21178;-90
2021/01/07 13:16:20;;;;;;;9.30;7.47;;;;;;;4.54;82.18;99479.59;1798240;79;21175;-91
2021/01/07 13:18:49;;;;;;;11.13;8.80;;;;;;;4.60;81.99;99473.65;1776355;79;21202;-92
2021/01/07 13:22:03;;;;;;;11.57;9.80;;;;;;;4.56;82.05;99469.20;1740407;80;21272;-94
2021/01/07 13:25:31;;;;;;;;;;;;;;;;;;;;;
2021/01/07 13:28:30;;;;;;;8.63;7.13;;;;;;;4.75;81.48;99452.13;1812625;78;23423;-93
2021/01/07 13:31:01;;;;;;;11.43;8.30;;;;;;;4.66;81.42;99452.65;1701141;83;21650;-91
2021/01/07 13:33:30;;;;;;;8.97;7.23;;;;;;;4.54;81.58;99454.52;1689455;83;21221;-90
2021/01/07 13:36:04;;;;;;;8.23;6.47;;;;;;;4.49;81.68;99449.25;1611078;86;21168;-92
2021/01/07 13:38:38;;;;;;;8.37;7.37;;;;;;;4.61;81.53;99443.60;1653716;85;21220;-90
2021/01/07 13:41:53;;;;;;;8.80;7.53;;;;;;;4.65;81.58;99434.34;1759875;79;22434;-90
2021/01/07 13:44:20;;;;;;;9.57;7.23;;;;;;;4.57;81.85;99440.98;1704525;82;21168;-91
2021/01/07 14:00:59;;;;;;;10.97;7.70;;;;;;;4.59;81.75;99409.96;1721542;81;23063;-92
2021/01/07 14:03:26;;;;;;;9.60;7.23;;;;;;;4.58;81.73;99414.93;1702088;82;21264;-88
2021/01/07 14:05:53;;;;;;;11.03;8.30;;;;;;;4.55;81.83;99408.16;1681233;83;21258;-89
2021/01/07 14:08:31;;;;;;;9.37;7.63;;;;;;;4.55;81.98;99406.02;1677556;84;21159;-89
2021/01/07 14:10:59;;;;;;;7.03;5.60;;;;;;;4.61;81.87;99407.97;1668497;83;21396;-87
2021/01/07 14:13:26;;;;;;;6.40;5.70;;;;;;;4.76;81.39;99402.28;1639581;86;21214;-89
2021/01/07 14:15:54;;;;;;;8.50;5.40;;;;;;;4.78;81.31;99403.42;1688945;83;21217;-90
2021/01/07 14:18:39;;;;;;;8.10;6.37;;;;;;;4.73;81.45;99395.20;1684743;83;21170;-91
2021/01/07 14:21:50;;;;;;;5.60;5.03;;;;;;;4.73;81.63;99393.88;1832135;76;23030;-91
2021/01/07 14:24:21;;;;;;;6.07;5.47;;;;;;;4.77;81.19;99386.77;1813785;77;21733;-89
2021/01/07 14:27:02;;;;;;;5.70;5.10;;;;;;;4.80;80.79;99377.20;1818721;77;21517;-91
2021/01/07 14:29:34;;;;;;;5.07;4.67;;;;;;;4.82;81.02;99388.41;1767933;80;21240;-90
2021/01/07 14:32:05;;;;;;;6.43;5.83;;;;;;;4.78;81.29;99377.84;1738448;81;21188;-90
2021/01/07 14:34:39;;;;;;;5.97;5.37;;;;;;;4.75;81.39;99380.84;1755317;80;21205;-90
2021/01/07 14:37:07;;;;;;;4.10;3.70;;;;;;;4.81;81.28;99374.05;1775608;77;21185;-90
2021/01/07 14:39:34;;;;;;;7.67;6.00;;;;;;;4.94;80.97;99368.20;1753775;79;21314;-88
2021/01/07 14:42:06;;;;;;;5.23;4.50;;;;;;;4.97;80.93;99367.83;1710969;79;21280;-93